sensor_id;sensor_type;location;lat;lon;timestamp;pressure;altitude;pressure_sealevel;temperature;humidity
3444;BME280;1736;52.068;6.968;2023-09-19T00:01:32;100581.91;;;15.72;100.00
3444;BME280;1736;52.068;6.968;2023-09-19T00:04:00;100596.31;;;15.79;100.00
3444;BME280;1736;52.068;6.968;2023-09-19T00:06:28;100589.63;;;15.83;100.00
3444;BME280;1736;52.068;6.968;2023-09-19T00:08:57;100598.66;;;15.82;100.00
3444;BME280;1736;52.068;6.968;2023-09-19T00:11:24;100601.00;;;15.77;100.00
3444;BME280;1736;52.068;6.968;2023-09-19T00:13:52;100591.78;;;15.72;100.00
3444;BME280;1736;52.068;6.968;2023-09-19T00:16:20;100597.16;;;15.72;100.00
3444;BME280;1736;52.068;6.968;2023-09-19T00:18:47;100607.34;;;15.68;100.00
3444;BME280;1736;52.068;6.968;2023-09-19T00:21:15;100603.00;;;15.83;100.00
3444;BME280;1736;52.068;6.968;2023-09-19T00:23:42;100605.53;;;15.85;100.00
3444;BME280;1736;52.068;6.968;2023-09-19T00:26:08;100612.06;;;15.82;100.00
3444;BME280;1736;52.068;6.968;2023-09-19T00:28:35;100611.34;;;15.72;100.00
3444;BME280;1736;52.068;6.968;2023-09-19T00:31:01;100614.69;;;15.66;100.00
3444;BME280;1736;52.068;6.968;2023-09-19T00:33:28;100607.31;;;15.60;100.00
3444;BME280;1736;52.068;6.968;2023-09-19T00:35:56;100604.22;;;15.47;100.00
3444;BME280;1736;52.068;6.968;2023-09-19T00:38:25;100616.47;;;15.58;100.00
3444;BME280;1736;52.068;6.968;2023-09-19T00:40:54;100616.63;;;15.48;100.00
3444;BME280;1736;52.068;6.968;2023-09-19T00:43:22;100610.00;;;15.60;100.00
3444;BME280;1736;52.068;6.968;2023-09-19T00:45:52;100611.97;;;15.58;100.00
3444;BME280;1736;52.068;6.968;2023-09-19T00:48:21;100613.97;;;15.56;100.00
3444;BME280;1736;52.068;6.968;2023-09-19T00:50:48;100619.66;;;15.53;100.00
3444;BME280;1736;52.068;6.968;2023-09-19T00:53:19;100621.97;;;15.48;100.00
3444;BME280;1736;52.068;6.968;2023-09-19T00:55:48;100629.00;;;15.49;100.00
3444;BME280;1736;52.068;6.968;2023-09-19T00:58:16;100616.28;;;15.51;100.00
3444;BME280;1736;52.068;6.968;2023-09-19T01:00:43;100632.53;;;15.58;100.00
3444;BME280;1736;52.068;6.968;2023-09-19T01:03:10;100629.06;;;15.65;100.00
3444;BME280;1736;52.068;6.968;2023-09-19T01:05:38;100634.41;;;15.65;100.00
3444;BME280;1736;52.068;6.968;2023-09-19T01:08:05;100633.06;;;15.61;100.00
3444;BME280;1736;52.068;6.968;2023-09-19T01:10:33;100628.84;;;15.51;100.00
3444;BME280;1736;52.068;6.968;2023-09-19T01:13:07;100634.66;;;15.46;100.00
3444;BME280;1736;52.068;6.968;2023-09-19T01:15:42;100639.16;;;15.46;100.00
3444;BME280;1736;52.068;6.968;2023-09-19T01:18:16;100641.34;;;15.50;100.00
3444;BME280;1736;52.068;6.968;2023-09-19T01:20:53;100642.09;;;15.60;100.00
3444;BME280;1736;52.068;6.968;2023-09-19T01:23:28;100643.91;;;15.60;100.00
3444;BME280;1736;52.068;6.968;2023-09-19T01:26:06;100647.75;;;15.57;100.00
3444;BME280;1736;52.068;6.968;2023-09-19T01:28:45;100653.56;;;15.53;100.00
3444;BME280;1736;52.068;6.968;2023-09-19T01:31:21;100658.94;;;15.61;100.00
3444;BME280;1736;52.068;6.968;2023-09-19T01:33:59;100655.44;;;15.52;100.00
3444;BME280;1736;52.068;6.968;2023-09-19T01:36:27;100656.91;;;15.47;100.00
3444;BME280;1736;52.068;6.968;2023-09-19T01:38:55;100665.94;;;15.54;100.00
3444;BME280;1736;52.068;6.968;2023-09-19T01:41:32;100656.41;;;15.51;100.00
3444;BME280;1736;52.068;6.968;2023-09-19T01:44:01;100666.44;;;15.49;100.00
3444;BME280;1736;52.068;6.968;2023-09-19T01:46:34;100669.41;;;15.46;100.00
3444;BME280;1736;52.068;6.968;2023-09-19T01:49:14;100673.13;;;15.53;100.00
3444;BME280;1736;52.068;6.968;2023-09-19T01:51:48;100676.78;;;15.44;100.00
3444;BME280;1736;52.068;6.968;2023-09-19T01:54:24;100670.44;;;15.45;100.00
3444;BME280;1736;52.068;6.968;2023-09-19T01:56:59;100679.75;;;15.41;100.00
3444;BME280;1736;52.068;6.968;2023-09-19T01:59:34;100669.69;;;15.35;100.00
3444;BME280;1736;52.068;6.968;2023-09-19T02:02:04;100665.81;;;15.29;100.00
3444;BME280;1736;52.068;6.968;2023-09-19T02:04:32;100670.47;;;15.27;100.00
3444;BME280;1736;52.068;6.968;2023-09-19T02:07:00;100660.38;;;15.13;100.00
3444;BME280;1736;52.068;6.968;2023-09-19T02:09:27;100659.09;;;15.00;100.00
3444;BME280;1736;52.068;6.968;2023-09-19T02:11:54;100663.28;;;15.02;100.00
3444;BME280;1736;52.068;6.968;2023-09-19T02:14:21;100667.28;;;14.98;100.00
3444;BME280;1736;52.068;6.968;2023-09-19T02:16:48;100670.41;;;14.94;100.00
3444;BME280;1736;52.068;6.968;2023-09-19T02:19:16;100665.38;;;14.91;100.00
3444;BME280;1736;52.068;6.968;2023-09-19T02:21:43;100678.91;;;14.89;100.00
3444;BME280;1736;52.068;6.968;2023-09-19T02:24:09;100676.03;;;14.83;100.00
3444;BME280;1736;52.068;6.968;2023-09-19T02:26:38;100670.41;;;14.94;100.00
3444;BME280;1736;52.068;6.968;2023-09-19T02:29:04;100683.41;;;14.89;100.00
3444;BME280;1736;52.068;6.968;2023-09-19T02:31:31;100692.78;;;14.93;100.00
3444;BME280;1736;52.068;6.968;2023-09-19T02:33:57;100685.41;;;14.87;100.00
3444;BME280;1736;52.068;6.968;2023-09-19T02:36:26;100694.94;;;14.89;100.00
3444;BME280;1736;52.068;6.968;2023-09-19T02:38:53;100694.31;;;14.78;100.00
3444;BME280;1736;52.068;6.968;2023-09-19T02:41:20;100690.91;;;14.85;100.00
3444;BME280;1736;52.068;6.968;2023-09-19T02:43:46;100688.31;;;14.76;100.00
3444;BME280;1736;52.068;6.968;2023-09-19T02:46:13;100688.59;;;14.73;100.00
3444;BME280;1736;52.068;6.968;2023-09-19T02:48:40;100691.91;;;14.67;100.00
3444;BME280;1736;52.068;6.968;2023-09-19T02:51:07;100681.22;;;14.67;100.00
3444;BME280;1736;52.068;6.968;2023-09-19T02:53:35;100691.84;;;14.59;100.00
3444;BME280;1736;52.068;6.968;2023-09-19T02:56:02;100688.53;;;14.47;100.00
3444;BME280;1736;52.068;6.968;2023-09-19T02:58:29;100687.72;;;14.47;100.00
3444;BME280;1736;52.068;6.968;2023-09-19T03:01:07;100687.03;;;14.62;100.00
3444;BME280;1736;52.068;6.968;2023-09-19T03:03:34;100680.69;;;14.46;100.00
3444;BME280;1736;52.068;6.968;2023-09-19T03:06:02;100683.69;;;14.43;100.00
3444;BME280;1736;52.068;6.968;2023-09-19T03:08:29;100691.31;;;14.38;100.00
3444;BME280;1736;52.068;6.968;2023-09-19T03:10:57;100690.25;;;14.31;100.00
3444;BME280;1736;52.068;6.968;2023-09-19T03:13:26;100695.19;;;14.26;100.00
3444;BME280;1736;52.068;6.968;2023-09-19T03:15:54;100690.28;;;14.21;100.00
3444;BME280;1736;52.068;6.968;2023-09-19T03:18:22;100684.84;;;14.13;100.00
3444;BME280;1736;52.068;6.968;2023-09-19T03:20:52;100696.59;;;14.20;100.00
3444;BME280;1736;52.068;6.968;2023-09-19T03:23:20;100699.75;;;14.06;100.00
3444;BME280;1736;52.068;6.968;2023-09-19T03:25:46;100702.91;;;14.02;100.00
3444;BME280;1736;52.068;6.968;2023-09-19T03:28:15;100710.50;;;13.97;100.00
3444;BME280;1736;52.068;6.968;2023-09-19T03:30:41;100707.16;;;13.95;100.00
3444;BME280;1736;52.068;6.968;2023-09-19T03:33:08;100711.34;;;13.97;100.00
3444;BME280;1736;52.068;6.968;2023-09-19T03:35:37;100711.78;;;13.93;100.00
3444;BME280;1736;52.068;6.968;2023-09-19T03:38:04;100714.44;;;13.93;100.00
3444;BME280;1736;52.068;6.968;2023-09-19T03:40:30;100702.81;;;13.94;100.00
3444;BME280;1736;52.068;6.968;2023-09-19T03:43:00;100709.63;;;13.79;100.00
3444;BME280;1736;52.068;6.968;2023-09-19T03:45:28;100708.72;;;13.88;100.00
3444;BME280;1736;52.068;6.968;2023-09-19T03:47:54;100703.00;;;13.83;100.00
3444;BME280;1736;52.068;6.968;2023-09-19T03:50:21;100704.13;;;13.80;100.00
3444;BME280;1736;52.068;6.968;2023-09-19T03:52:48;100705.66;;;13.83;100.00
3444;BME280;1736;52.068;6.968;2023-09-19T03:55:14;100706.34;;;13.85;100.00
3444;BME280;1736;52.068;6.968;2023-09-19T03:57:41;100692.94;;;13.77;100.00
3444;BME280;1736;52.068;6.968;2023-09-19T04:00:08;100689.84;;;13.72;100.00
3444;BME280;1736;52.068;6.968;2023-09-19T04:02:38;100693.53;;;13.71;100.00
3444;BME280;1736;52.068;6.968;2023-09-19T04:05:05;100695.03;;;13.73;100.00
3444;BME280;1736;52.068;6.968;2023-09-19T04:07:32;100701.13;;;13.66;100.00
3444;BME280;1736;52.068;6.968;2023-09-19T04:10:00;100698.75;;;13.63;100.00
3444;BME280;1736;52.068;6.968;2023-09-19T04:12:26;100701.41;;;13.63;100.00
3444;BME280;1736;52.068;6.968;2023-09-19T04:14:53;100709.28;;;13.64;100.00
3444;BME280;1736;52.068;6.968;2023-09-19T04:17:20;100715.44;;;13.65;100.00
3444;BME280;1736;52.068;6.968;2023-09-19T04:19:48;100715.44;;;13.65;100.00
3444;BME280;1736;52.068;6.968;2023-09-19T04:22:14;100708.16;;;13.57;100.00
3444;BME280;1736;52.068;6.968;2023-09-19T04:24:41;100708.88;;;13.59;100.00
3444;BME280;1736;52.068;6.968;2023-09-19T04:27:08;100703.59;;;13.50;100.00
3444;BME280;1736;52.068;6.968;2023-09-19T04:29:35;100699.53;;;13.46;100.00
3444;BME280;1736;52.068;6.968;2023-09-19T04:32:03;100695.63;;;13.40;100.00
3444;BME280;1736;52.068;6.968;2023-09-19T04:34:31;100694.38;;;13.35;100.00
3444;BME280;1736;52.068;6.968;2023-09-19T04:36:59;100699.00;;;13.33;100.00
3444;BME280;1736;52.068;6.968;2023-09-19T04:39:26;100711.34;;;13.34;100.00
3444;BME280;1736;52.068;6.968;2023-09-19T04:41:52;100726.22;;;13.27;100.00
3444;BME280;1736;52.068;6.968;2023-09-19T04:44:20;100731.56;;;13.27;100.00
3444;BME280;1736;52.068;6.968;2023-09-19T04:46:47;100739.41;;;13.28;100.00
3444;BME280;1736;52.068;6.968;2023-09-19T04:49:13;100735.91;;;13.28;100.00
3444;BME280;1736;52.068;6.968;2023-09-19T04:51:40;100747.00;;;13.23;100.00
3444;BME280;1736;52.068;6.968;2023-09-19T04:54:09;100743.81;;;13.10;100.00
3444;BME280;1736;52.068;6.968;2023-09-19T04:56:35;100764.00;;;13.13;100.00
3444;BME280;1736;52.068;6.968;2023-09-19T04:59:06;100760.75;;;13.09;100.00
3444;BME280;1736;52.068;6.968;2023-09-19T05:01:32;100756.00;;;13.13;100.00
3444;BME280;1736;52.068;6.968;2023-09-19T05:03:59;100767.66;;;13.12;100.00
3444;BME280;1736;52.068;6.968;2023-09-19T05:06:26;100759.09;;;13.08;100.00
3444;BME280;1736;52.068;6.968;2023-09-19T05:08:52;100770.59;;;13.09;100.00
3444;BME280;1736;52.068;6.968;2023-09-19T05:11:21;100765.81;;;13.12;100.00
3444;BME280;1736;52.068;6.968;2023-09-19T05:13:48;100764.38;;;13.27;100.00
3444;BME280;1736;52.068;6.968;2023-09-19T05:16:15;100773.91;;;13.30;100.00
3444;BME280;1736;52.068;6.968;2023-09-19T05:18:42;100772.81;;;13.23;100.00
3444;BME280;1736;52.068;6.968;2023-09-19T05:21:09;100781.06;;;13.29;100.00
3444;BME280;1736;52.068;6.968;2023-09-19T05:23:35;100771.94;;;13.32;100.00
3444;BME280;1736;52.068;6.968;2023-09-19T05:26:02;100784.56;;;13.30;100.00
3444;BME280;1736;52.068;6.968;2023-09-19T05:28:32;100780.50;;;13.35;100.00
3444;BME280;1736;52.068;6.968;2023-09-19T05:31:00;100781.50;;;13.25;100.00
3444;BME280;1736;52.068;6.968;2023-09-19T05:33:27;100784.31;;;13.33;100.00
3444;BME280;1736;52.068;6.968;2023-09-19T05:35:57;100776.03;;;13.26;100.00
3444;BME280;1736;52.068;6.968;2023-09-19T05:38:23;100776.59;;;13.30;100.00
3444;BME280;1736;52.068;6.968;2023-09-19T05:40:51;100772.78;;;13.32;100.00
3444;BME280;1736;52.068;6.968;2023-09-19T05:43:17;100776.84;;;13.36;100.00
3444;BME280;1736;52.068;6.968;2023-09-19T05:45:45;100780.63;;;13.43;100.00
3444;BME280;1736;52.068;6.968;2023-09-19T05:48:13;100781.72;;;13.50;100.00
3444;BME280;1736;52.068;6.968;2023-09-19T05:50:41;100780.28;;;13.56;100.00
3444;BME280;1736;52.068;6.968;2023-09-19T05:53:08;100777.88;;;13.62;100.00
3444;BME280;1736;52.068;6.968;2023-09-19T05:55:37;100781.53;;;13.71;100.00
3444;BME280;1736;52.068;6.968;2023-09-19T05:58:04;100790.91;;;13.75;100.00
3444;BME280;1736;52.068;6.968;2023-09-19T06:00:30;100797.22;;;13.83;100.00
3444;BME280;1736;52.068;6.968;2023-09-19T06:02:59;100807.94;;;14.01;100.00
3444;BME280;1736;52.068;6.968;2023-09-19T06:05:27;100808.44;;;14.14;100.00
3444;BME280;1736;52.068;6.968;2023-09-19T06:07:55;100799.72;;;14.21;100.00
3444;BME280;1736;52.068;6.968;2023-09-19T06:10:25;100798.59;;;14.14;100.00
3444;BME280;1736;52.068;6.968;2023-09-19T06:12:53;100798.88;;;14.11;100.00
3444;BME280;1736;52.068;6.968;2023-09-19T06:15:20;100798.88;;;14.11;100.00
3444;BME280;1736;52.068;6.968;2023-09-19T06:17:49;100790.50;;;14.06;100.00
3444;BME280;1736;52.068;6.968;2023-09-19T06:20:17;100800.34;;;14.06;100.00
3444;BME280;1736;52.068;6.968;2023-09-19T06:22:45;100791.63;;;14.04;100.00
3444;BME280;1736;52.068;6.968;2023-09-19T06:25:13;100797.06;;;14.12;100.00
3444;BME280;1736;52.068;6.968;2023-09-19T06:27:42;100794.16;;;14.05;100.00
3444;BME280;1736;52.068;6.968;2023-09-19T06:30:11;100794.44;;;14.02;100.00
3444;BME280;1736;52.068;6.968;2023-09-19T06:32:38;100796.44;;;14.00;100.00
3444;BME280;1736;52.068;6.968;2023-09-19T06:35:05;100801.03;;;14.08;100.00
3444;BME280;1736;52.068;6.968;2023-09-19T06:37:35;100815.75;;;14.12;100.00
3444;BME280;1736;52.068;6.968;2023-09-19T06:40:06;100820.09;;;14.13;100.00
3444;BME280;1736;52.068;6.968;2023-09-19T06:42:33;100821.94;;;14.22;100.00
3444;BME280;1736;52.068;6.968;2023-09-19T06:45:00;100829.81;;;14.14;100.00
3444;BME280;1736;52.068;6.968;2023-09-19T06:47:26;100830.31;;;14.27;100.00
3444;BME280;1736;52.068;6.968;2023-09-19T06:49:53;100833.00;;;14.27;100.00
3444;BME280;1736;52.068;6.968;2023-09-19T06:52:19;100839.25;;;14.35;100.00
3444;BME280;1736;52.068;6.968;2023-09-19T06:54:48;100831.81;;;14.39;100.00
3444;BME280;1736;52.068;6.968;2023-09-19T06:57:15;100837.16;;;14.39;100.00
3444;BME280;1736;52.068;6.968;2023-09-19T06:59:42;100831.19;;;14.45;100.00
3444;BME280;1736;52.068;6.968;2023-09-19T07:02:10;100840.31;;;14.52;100.00
3444;BME280;1736;52.068;6.968;2023-09-19T07:04:36;100843.50;;;14.55;100.00
3444;BME280;1736;52.068;6.968;2023-09-19T07:07:03;100844.75;;;14.61;100.00
3444;BME280;1736;52.068;6.968;2023-09-19T07:09:30;100830.56;;;14.78;100.00
3444;BME280;1736;52.068;6.968;2023-09-19T07:11:58;100846.81;;;14.84;100.00
3444;BME280;1736;52.068;6.968;2023-09-19T07:14:24;100848.13;;;14.98;100.00
3444;BME280;1736;52.068;6.968;2023-09-19T07:16:51;100833.69;;;15.08;100.00
3444;BME280;1736;52.068;6.968;2023-09-19T07:19:18;100839.34;;;15.23;100.00
3444;BME280;1736;52.068;6.968;2023-09-19T07:21:45;100842.78;;;15.33;100.00
3444;BME280;1736;52.068;6.968;2023-09-19T07:24:12;100841.38;;;15.39;100.00
3444;BME280;1736;52.068;6.968;2023-09-19T07:26:39;100838.53;;;15.40;100.00
3444;BME280;1736;52.068;6.968;2023-09-19T07:29:07;100845.03;;;15.38;100.00
3444;BME280;1736;52.068;6.968;2023-09-19T07:31:34;100848.59;;;15.46;100.00
3444;BME280;1736;52.068;6.968;2023-09-19T07:34:00;100851.63;;;15.51;100.00
3444;BME280;1736;52.068;6.968;2023-09-19T07:36:29;100840.34;;;15.40;100.00
3444;BME280;1736;52.068;6.968;2023-09-19T07:38:55;100850.81;;;15.51;100.00
3444;BME280;1736;52.068;6.968;2023-09-19T07:41:23;100862.03;;;15.54;100.00
3444;BME280;1736;52.068;6.968;2023-09-19T07:43:50;100877.69;;;15.67;100.00
3444;BME280;1736;52.068;6.968;2023-09-19T07:46:18;100869.50;;;15.68;100.00
3444;BME280;1736;52.068;6.968;2023-09-19T07:48:46;100859.03;;;15.75;100.00
3444;BME280;1736;52.068;6.968;2023-09-19T07:51:14;100853.88;;;15.81;100.00
3444;BME280;1736;52.068;6.968;2023-09-19T07:53:41;100866.66;;;15.95;100.00
3444;BME280;1736;52.068;6.968;2023-09-19T07:56:09;100860.00;;;15.99;100.00
3444;BME280;1736;52.068;6.968;2023-09-19T07:58:39;100863.88;;;16.05;100.00
3444;BME280;1736;52.068;6.968;2023-09-19T08:01:07;100863.50;;;16.25;100.00
3444;BME280;1736;52.068;6.968;2023-09-19T08:03:36;100860.44;;;16.20;100.00
3444;BME280;1736;52.068;6.968;2023-09-19T08:06:06;100859.63;;;16.20;100.00
3444;BME280;1736;52.068;6.968;2023-09-19T08:08:33;100891.81;;;16.28;100.00
3444;BME280;1736;52.068;6.968;2023-09-19T08:11:02;100880.94;;;16.29;100.00
3444;BME280;1736;52.068;6.968;2023-09-19T08:13:35;100872.00;;;16.21;100.00
3444;BME280;1736;52.068;6.968;2023-09-19T08:16:03;100878.97;;;16.39;100.00
3444;BME280;1736;52.068;6.968;2023-09-19T08:18:30;100871.66;;;16.49;100.00
3444;BME280;1736;52.068;6.968;2023-09-19T08:20:57;100871.63;;;16.41;100.00
3444;BME280;1736;52.068;6.968;2023-09-19T08:23:25;100867.19;;;16.66;100.00
3444;BME280;1736;52.068;6.968;2023-09-19T08:25:56;100870.84;;;16.49;100.00
3444;BME280;1736;52.068;6.968;2023-09-19T08:28:22;100880.75;;;16.64;100.00
3444;BME280;1736;52.068;6.968;2023-09-19T08:30:49;100875.38;;;16.56;100.00
3444;BME280;1736;52.068;6.968;2023-09-19T08:33:16;100889.16;;;16.69;100.00
3444;BME280;1736;52.068;6.968;2023-09-19T08:35:43;100885.50;;;16.78;100.00
3444;BME280;1736;52.068;6.968;2023-09-19T08:38:12;100887.00;;;16.73;100.00
3444;BME280;1736;52.068;6.968;2023-09-19T08:40:39;100879.16;;;16.87;100.00
3444;BME280;1736;52.068;6.968;2023-09-19T08:43:07;100891.56;;;16.96;100.00
3444;BME280;1736;52.068;6.968;2023-09-19T08:45:34;100893.75;;;16.93;100.00
3444;BME280;1736;52.068;6.968;2023-09-19T08:48:12;100881.34;;;17.00;100.00
3444;BME280;1736;52.068;6.968;2023-09-19T08:50:44;100893.44;;;17.04;100.00
3444;BME280;1736;52.068;6.968;2023-09-19T08:53:19;100885.91;;;17.07;100.00
3444;BME280;1736;52.068;6.968;2023-09-19T08:55:50;100885.56;;;17.18;100.00
3444;BME280;1736;52.068;6.968;2023-09-19T08:58:20;100891.16;;;17.41;100.00
3444;BME280;1736;52.068;6.968;2023-09-19T09:00:50;100905.25;;;17.43;100.00
3444;BME280;1736;52.068;6.968;2023-09-19T09:03:20;100887.28;;;17.35;100.00
3444;BME280;1736;52.068;6.968;2023-09-19T09:05:49;100881.41;;;17.40;100.00
3444;BME280;1736;52.068;6.968;2023-09-19T09:08:18;100884.13;;;17.48;100.00
3444;BME280;1736;52.068;6.968;2023-09-19T09:10:47;100880.78;;;17.54;100.00
3444;BME280;1736;52.068;6.968;2023-09-19T09:13:14;100884.97;;;17.56;100.00
3444;BME280;1736;52.068;6.968;2023-09-19T09:15:41;100890.34;;;17.72;100.00
3444;BME280;1736;52.068;6.968;2023-09-19T09:18:10;100869.84;;;17.79;100.00
3444;BME280;1736;52.068;6.968;2023-09-19T09:20:37;100889.16;;;17.91;100.00
3444;BME280;1736;52.068;6.968;2023-09-19T09:23:03;100878.03;;;18.02;100.00
3444;BME280;1736;52.068;6.968;2023-09-19T09:25:49;100872.19;;;17.90;100.00
3444;BME280;1736;52.068;6.968;2023-09-19T09:28:20;100885.44;;;17.92;100.00
3444;BME280;1736;52.068;6.968;2023-09-19T09:30:47;100865.16;;;17.81;100.00
3444;BME280;1736;52.068;6.968;2023-09-19T09:33:16;100868.84;;;17.96;100.00
3444;BME280;1736;52.068;6.968;2023-09-19T09:35:50;100897.34;;;18.05;100.00
3444;BME280;1736;52.068;6.968;2023-09-19T09:38:19;100877.88;;;17.95;100.00
3444;BME280;1736;52.068;6.968;2023-09-19T09:40:48;100888.94;;;18.08;100.00
3444;BME280;1736;52.068;6.968;2023-09-19T09:43:29;100892.00;;;17.89;100.00
3444;BME280;1736;52.068;6.968;2023-09-19T09:46:11;100882.78;;;17.84;100.00
3444;BME280;1736;52.068;6.968;2023-09-19T09:49:10;100888.84;;;17.70;100.00
3444;BME280;1736;52.068;6.968;2023-09-19T09:52:00;100880.91;;;17.92;100.00
3444;BME280;1736;52.068;6.968;2023-09-19T09:54:31;100871.81;;;18.09;100.00
3444;BME280;1736;52.068;6.968;2023-09-19T09:57:04;100878.84;;;18.10;100.00
3444;BME280;1736;52.068;6.968;2023-09-19T09:59:47;100874.78;;;18.22;100.00
3444;BME280;1736;52.068;6.968;2023-09-19T10:02:15;100867.19;;;18.42;100.00
3444;BME280;1736;52.068;6.968;2023-09-19T10:04:48;100863.84;;;18.32;100.00
3444;BME280;1736;52.068;6.968;2023-09-19T10:07:33;100866.38;;;18.41;100.00
3444;BME280;1736;52.068;6.968;2023-09-19T10:10:01;100864.66;;;18.48;100.00
3444;BME280;1736;52.068;6.968;2023-09-19T10:12:42;100859.22;;;18.56;100.00
3444;BME280;1736;52.068;6.968;2023-09-19T10:15:11;100865.59;;;18.63;100.00
3444;BME280;1736;52.068;6.968;2023-09-19T10:17:42;100863.53;;;18.73;100.00
3444;BME280;1736;52.068;6.968;2023-09-19T10:20:12;100858.81;;;18.75;100.00
3444;BME280;1736;52.068;6.968;2023-09-19T10:22:59;100853.22;;;18.85;100.00
3444;BME280;1736;52.068;6.968;2023-09-19T10:25:27;100849.13;;;18.66;100.00
3444;BME280;1736;52.068;6.968;2023-09-19T10:27:57;100851.03;;;18.80;100.00
3444;BME280;1736;52.068;6.968;2023-09-19T10:30:29;100865.50;;;19.10;100.00
3444;BME280;1736;52.068;6.968;2023-09-19T10:33:00;100868.97;;;19.18;100.00
3444;BME280;1736;52.068;6.968;2023-09-19T10:35:27;100861.31;;;19.07;97.29
3444;BME280;1736;52.068;6.968;2023-09-19T10:37:54;100862.28;;;19.14;98.07
3444;BME280;1736;52.068;6.968;2023-09-19T10:40:21;100859.31;;;19.01;99.18
3444;BME280;1736;52.068;6.968;2023-09-19T10:42:52;100853.78;;;18.72;99.17
3444;BME280;1736;52.068;6.968;2023-09-19T10:45:22;100839.44;;;18.57;99.87
3444;BME280;1736;52.068;6.968;2023-09-19T10:47:51;100854.22;;;18.53;100.00
3444;BME280;1736;52.068;6.968;2023-09-19T10:50:20;100856.16;;;18.67;100.00
3444;BME280;1736;52.068;6.968;2023-09-19T10:52:48;100860.38;;;18.92;100.00
3444;BME280;1736;52.068;6.968;2023-09-19T10:55:17;100864.00;;;19.07;100.00
3444;BME280;1736;52.068;6.968;2023-09-19T10:57:44;100852.13;;;19.24;100.00
3444;BME280;1736;52.068;6.968;2023-09-19T11:00:12;100856.41;;;19.11;99.18
3444;BME280;1736;52.068;6.968;2023-09-19T11:03:17;100854.66;;;19.18;99.12
3444;BME280;1736;52.068;6.968;2023-09-19T11:06:02;100846.66;;;19.10;96.90
3444;BME280;1736;52.068;6.968;2023-09-19T11:08:31;100837.69;;;19.40;95.47
3444;BME280;1736;52.068;6.968;2023-09-19T11:10:58;100831.94;;;19.20;91.81
3444;BME280;1736;52.068;6.968;2023-09-19T11:13:28;100840.69;;;19.22;93.36
3444;BME280;1736;52.068;6.968;2023-09-19T11:16:04;100843.00;;;19.48;94.46
3444;BME280;1736;52.068;6.968;2023-09-19T11:18:54;100835.69;;;19.42;92.10
3444;BME280;1736;52.068;6.968;2023-09-19T11:21:40;100831.16;;;19.42;90.47
3444;BME280;1736;52.068;6.968;2023-09-19T11:24:31;100827.38;;;19.29;93.97
3444;BME280;1736;52.068;6.968;2023-09-19T11:27:12;100830.91;;;19.29;95.57
3444;BME280;1736;52.068;6.968;2023-09-19T11:29:40;100835.44;;;19.51;92.63
3444;BME280;1736;52.068;6.968;2023-09-19T11:32:07;100840.09;;;19.72;90.09
3444;BME280;1736;52.068;6.968;2023-09-19T11:34:49;100823.13;;;19.71;87.61
3444;BME280;1736;52.068;6.968;2023-09-19T11:40:44;100812.44;;;19.63;88.43
3444;BME280;1736;52.068;6.968;2023-09-19T11:43:32;100806.72;;;19.81;89.01
3444;BME280;1736;52.068;6.968;2023-09-19T11:46:05;100805.41;;;19.92;87.96
3444;BME280;1736;52.068;6.968;2023-09-19T11:48:33;100826.22;;;20.27;88.63
3444;BME280;1736;52.068;6.968;2023-09-19T11:51:11;100816.84;;;20.23;86.79
3444;BME280;1736;52.068;6.968;2023-09-19T11:53:45;100808.28;;;20.34;86.31
3444;BME280;1736;52.068;6.968;2023-09-19T11:56:14;100812.59;;;20.64;85.09
3444;BME280;1736;52.068;6.968;2023-09-19T11:58:41;100787.38;;;20.36;82.56
3444;BME280;1736;52.068;6.968;2023-09-19T12:01:08;100795.34;;;20.44;85.47
3444;BME280;1736;52.068;6.968;2023-09-19T12:03:42;100793.22;;;20.39;84.19
3444;BME280;1736;52.068;6.968;2023-09-19T12:06:13;100773.78;;;20.44;83.28
3444;BME280;1736;52.068;6.968;2023-09-19T12:08:41;100770.31;;;20.29;84.07
3444;BME280;1736;52.068;6.968;2023-09-19T12:11:12;100777.34;;;20.30;84.10
3444;BME280;1736;52.068;6.968;2023-09-19T12:13:41;100783.09;;;20.41;85.08
3444;BME280;1736;52.068;6.968;2023-09-19T12:16:12;100781.34;;;20.34;86.11
3444;BME280;1736;52.068;6.968;2023-09-19T12:18:40;100790.47;;;20.33;85.04
3444;BME280;1736;52.068;6.968;2023-09-19T12:21:08;100786.44;;;20.43;87.75
3444;BME280;1736;52.068;6.968;2023-09-19T12:23:58;100789.63;;;20.68;84.16
3444;BME280;1736;52.068;6.968;2023-09-19T12:26:26;100788.00;;;20.52;82.70
3444;BME280;1736;52.068;6.968;2023-09-19T12:28:54;100788.22;;;20.36;82.55
3444;BME280;1736;52.068;6.968;2023-09-19T12:31:21;100792.94;;;20.49;83.65
3444;BME280;1736;52.068;6.968;2023-09-19T12:33:53;100775.66;;;20.43;82.34
3444;BME280;1736;52.068;6.968;2023-09-19T12:36:20;100788.56;;;20.48;83.16
3444;BME280;1736;52.068;6.968;2023-09-19T12:38:50;100779.28;;;20.50;84.00
3444;BME280;1736;52.068;6.968;2023-09-19T12:41:20;100786.63;;;20.42;84.03
3444;BME280;1736;52.068;6.968;2023-09-19T12:43:47;100776.78;;;20.49;85.97
3444;BME280;1736;52.068;6.968;2023-09-19T12:46:14;100784.41;;;20.66;87.40
3444;BME280;1736;52.068;6.968;2023-09-19T12:48:44;100777.28;;;20.59;82.46
3444;BME280;1736;52.068;6.968;2023-09-19T12:51:13;100764.50;;;20.32;82.83
3444;BME280;1736;52.068;6.968;2023-09-19T12:53:42;100767.50;;;20.37;82.01
3444;BME280;1736;52.068;6.968;2023-09-19T12:56:11;100762.38;;;20.42;85.28
3444;BME280;1736;52.068;6.968;2023-09-19T12:58:51;100766.00;;;20.49;85.47
3444;BME280;1736;52.068;6.968;2023-09-19T13:01:19;100780.16;;;20.57;85.27
3444;BME280;1736;52.068;6.968;2023-09-19T13:03:46;100772.94;;;20.58;84.71
3444;BME280;1736;52.068;6.968;2023-09-19T13:06:12;100781.34;;;20.69;86.43
3444;BME280;1736;52.068;6.968;2023-09-19T13:08:39;100764.59;;;20.74;84.29
3444;BME280;1736;52.068;6.968;2023-09-19T13:11:09;100753.78;;;20.53;80.76
3444;BME280;1736;52.068;6.968;2023-09-19T13:13:38;100749.75;;;20.42;82.13
3444;BME280;1736;52.068;6.968;2023-09-19T13:16:07;100739.06;;;20.20;83.53
3444;BME280;1736;52.068;6.968;2023-09-19T13:18:47;100751.16;;;20.24;84.40